<?xml version="1.0" encoding="UTF-8" standalone="no" ?>
<gpx xmlns="http://www.topografix.com/GPX/1/1" xmlns:xsi="http://www.w3.org/2001/XMLSchema-instance" xsi:schemaLocation="http://www.topografix.com/GPX/1/1 http://www.topografix.com/GPX/1/1/gpx.xsd" version="1.1" creator="VisuGPX - https://www.visugpx.com">
  <metadata>
    <name>Aiguille de Laisse</name>
    <desc><![CDATA[Par la combe de Montfroid]]></desc>
  </metadata>
  <trk>
    <name><![CDATA[aiglle laisse]]></name>
    <desc><![CDATA[<h1>OruxMaps</h1><br /><hr align="center" width="480" style="height: 2px; width: 517px"/><h2>Nom: aiglle laisse</h2><br /><p>Temps de départ: 05/09/2014 07:22</p><p>Temps d'arrivée: 05/09/2014 12:33</p><p>Distance: 13 km (05:11)</p><p>Temps déplacement: 03:09</p><p>Vitesse moyenne: 2,5 km/h</p><p>Vitesse moyenne: 4,1 km/h</p><p>Vitess Max.: 49,5 km/h</p><p>Altitude minimale: 1765 m</p><p>Altitude maximale: 2871 m</p><p>Vitesse d'élévation: 298,8 m/h</p><p>Vitesse de descente: -904,4 m/h</p><p>Gain Altitude: 1140 m</p><p>Perte Altitude: -1146 m</p><p>Temps d'élévation: 03:49</p><p>Temps de descente: 01:16</p><hr align="center" width="480" style="height: 2px; width: 517px"/>]]></desc>
    <trkseg>
      <trkpt lat="45.23349" lon="6.16836">
        <ele>1835.16</ele>
        <time>2014-05-09T05:22:07Z</time>
      </trkpt>
      <trkpt lat="45.23349" lon="6.16862">
        <ele>1831.47</ele>
        <time>2014-05-09T05:23:16Z</time>
      </trkpt>
      <trkpt lat="45.23339" lon="6.16885">
        <ele>1824.22</ele>
        <time>2014-05-09T05:23:33Z</time>
      </trkpt>
      <trkpt lat="45.23328" lon="6.16906">
        <ele>1822.98</ele>
        <time>2014-05-09T05:23:47Z</time>
      </trkpt>
      <trkpt lat="45.23312" lon="6.1692">
        <ele>1818.1</ele>
        <time>2014-05-09T05:24:01Z</time>
      </trkpt>
      <trkpt lat="45.23295" lon="6.16931">
        <ele>1815.96</ele>
        <time>2014-05-09T05:24:17Z</time>
      </trkpt>
      <trkpt lat="45.23279" lon="6.16944">
        <ele>1811.91</ele>
        <time>2014-05-09T05:24:30Z</time>
      </trkpt>
      <trkpt lat="45.23262" lon="6.16954">
        <ele>1809.28</ele>
        <time>2014-05-09T05:24:50Z</time>
      </trkpt>
      <trkpt lat="45.23248" lon="6.16935">
        <ele>1808.02</ele>
        <time>2014-05-09T05:25:07Z</time>
      </trkpt>
      <trkpt lat="45.23233" lon="6.16919">
        <ele>1805.88</ele>
        <time>2014-05-09T05:26:40Z</time>
      </trkpt>
      <trkpt lat="45.23236" lon="6.16946">
        <ele>1801.16</ele>
        <time>2014-05-09T05:26:54Z</time>
      </trkpt>
      <trkpt lat="45.23245" lon="6.1697">
        <ele>1798.97</ele>
        <time>2014-05-09T05:27:09Z</time>
      </trkpt>
      <trkpt lat="45.23239" lon="6.16946">
        <ele>1794.56</ele>
        <time>2014-05-09T05:27:45Z</time>
      </trkpt>
      <trkpt lat="45.23231" lon="6.16922">
        <ele>1806.79</ele>
        <time>2014-05-09T05:28:01Z</time>
      </trkpt>
      <trkpt lat="45.23226" lon="6.16897">
        <ele>1806.55</ele>
        <time>2014-05-09T05:28:40Z</time>
      </trkpt>
      <trkpt lat="45.23217" lon="6.16872">
        <ele>1806.39</ele>
        <time>2014-05-09T05:28:58Z</time>
      </trkpt>
      <trkpt lat="45.23203" lon="6.16854">
        <ele>1809.34</ele>
        <time>2014-05-09T05:29:10Z</time>
      </trkpt>
      <trkpt lat="45.23189" lon="6.16834">
        <ele>1811.34</ele>
        <time>2014-05-09T05:29:24Z</time>
      </trkpt>
      <trkpt lat="45.23174" lon="6.16818">
        <ele>1817.98</ele>
        <time>2014-05-09T05:29:33Z</time>
      </trkpt>
      <trkpt lat="45.23192" lon="6.16812">
        <ele>1796.24</ele>
        <time>2014-05-09T05:32:09Z</time>
      </trkpt>
      <trkpt lat="45.23181" lon="6.16791">
        <ele>1793.41</ele>
        <time>2014-05-09T05:34:55Z</time>
      </trkpt>
      <trkpt lat="45.23176" lon="6.16765">
        <ele>1786.88</ele>
        <time>2014-05-09T05:35:10Z</time>
      </trkpt>
      <trkpt lat="45.23167" lon="6.16742">
        <ele>1789.45</ele>
        <time>2014-05-09T05:35:22Z</time>
      </trkpt>
      <trkpt lat="45.23156" lon="6.16718">
        <ele>1787.41</ele>
        <time>2014-05-09T05:35:36Z</time>
      </trkpt>
      <trkpt lat="45.23149" lon="6.16695">
        <ele>1786.74</ele>
        <time>2014-05-09T05:35:50Z</time>
      </trkpt>
      <trkpt lat="45.23143" lon="6.1667">
        <ele>1781.67</ele>
        <time>2014-05-09T05:36:04Z</time>
      </trkpt>
      <trkpt lat="45.23133" lon="6.16648">
        <ele>1782.3</ele>
        <time>2014-05-09T05:36:20Z</time>
      </trkpt>
      <trkpt lat="45.23123" lon="6.16624">
        <ele>1778.76</ele>
        <time>2014-05-09T05:36:34Z</time>
      </trkpt>
      <trkpt lat="45.23114" lon="6.16602">
        <ele>1775.5</ele>
        <time>2014-05-09T05:36:49Z</time>
      </trkpt>
      <trkpt lat="45.23105" lon="6.16577">
        <ele>1775.56</ele>
        <time>2014-05-09T05:37:06Z</time>
      </trkpt>
      <trkpt lat="45.23093" lon="6.16558">
        <ele>1774.6</ele>
        <time>2014-05-09T05:37:19Z</time>
      </trkpt>
      <trkpt lat="45.23078" lon="6.16574">
        <ele>1780.45</ele>
        <time>2014-05-09T05:37:51Z</time>
      </trkpt>
      <trkpt lat="45.23067" lon="6.16594">
        <ele>1776.1</ele>
        <time>2014-05-09T05:38:12Z</time>
      </trkpt>
      <trkpt lat="45.23072" lon="6.1662">
        <ele>1783.92</ele>
        <time>2014-05-09T05:38:33Z</time>
      </trkpt>
      <trkpt lat="45.23072" lon="6.16646">
        <ele>1785.65</ele>
        <time>2014-05-09T05:39:03Z</time>
      </trkpt>
      <trkpt lat="45.2308" lon="6.1667">
        <ele>1788.81</ele>
        <time>2014-05-09T05:39:24Z</time>
      </trkpt>
      <trkpt lat="45.23084" lon="6.16695">
        <ele>1793.43</ele>
        <time>2014-05-09T05:39:43Z</time>
      </trkpt>
      <trkpt lat="45.23092" lon="6.16719">
        <ele>1795.99</ele>
        <time>2014-05-09T05:40:03Z</time>
      </trkpt>
      <trkpt lat="45.23095" lon="6.16744">
        <ele>1797.05</ele>
        <time>2014-05-09T05:40:26Z</time>
      </trkpt>
      <trkpt lat="45.23095" lon="6.1677">
        <ele>1800.17</ele>
        <time>2014-05-09T05:40:59Z</time>
      </trkpt>
      <trkpt lat="45.23095" lon="6.16796">
        <ele>1802.79</ele>
        <time>2014-05-09T05:41:20Z</time>
      </trkpt>
      <trkpt lat="45.23097" lon="6.16822">
        <ele>1806.13</ele>
        <time>2014-05-09T05:43:39Z</time>
      </trkpt>
      <trkpt lat="45.23097" lon="6.16848">
        <ele>1811.17</ele>
        <time>2014-05-09T05:44:11Z</time>
      </trkpt>
      <trkpt lat="45.23092" lon="6.16873">
        <ele>1816.56</ele>
        <time>2014-05-09T05:44:42Z</time>
      </trkpt>
      <trkpt lat="45.23078" lon="6.16888">
        <ele>1823.94</ele>
        <time>2014-05-09T05:45:24Z</time>
      </trkpt>
      <trkpt lat="45.23063" lon="6.16903">
        <ele>1830.54</ele>
        <time>2014-05-09T05:46:02Z</time>
      </trkpt>
      <trkpt lat="45.23051" lon="6.16922">
        <ele>1840.44</ele>
        <time>2014-05-09T05:46:47Z</time>
      </trkpt>
      <trkpt lat="45.23032" lon="6.16925">
        <ele>1837.38</ele>
        <time>2014-05-09T05:47:30Z</time>
      </trkpt>
      <trkpt lat="45.23014" lon="6.16932">
        <ele>1840.27</ele>
        <time>2014-05-09T05:48:06Z</time>
      </trkpt>
      <trkpt lat="45.23003" lon="6.16952">
        <ele>1849.36</ele>
        <time>2014-05-09T05:48:55Z</time>
      </trkpt>
      <trkpt lat="45.22993" lon="6.16974">
        <ele>1863.98</ele>
        <time>2014-05-09T05:49:24Z</time>
      </trkpt>
      <trkpt lat="45.2299" lon="6.16999">
        <ele>1853.08</ele>
        <time>2014-05-09T05:50:12Z</time>
      </trkpt>
      <trkpt lat="45.22977" lon="6.17017">
        <ele>1856.03</ele>
        <time>2014-05-09T05:50:40Z</time>
      </trkpt>
      <trkpt lat="45.22965" lon="6.17036">
        <ele>1847.56</ele>
        <time>2014-05-09T05:51:13Z</time>
      </trkpt>
      <trkpt lat="45.22953" lon="6.17055">
        <ele>1859.79</ele>
        <time>2014-05-09T05:51:47Z</time>
      </trkpt>
      <trkpt lat="45.22934" lon="6.17055">
        <ele>1865.55</ele>
        <time>2014-05-09T05:52:15Z</time>
      </trkpt>
      <trkpt lat="45.22917" lon="6.1705">
        <ele>1868.91</ele>
        <time>2014-05-09T05:52:56Z</time>
      </trkpt>
      <trkpt lat="45.22899" lon="6.17043">
        <ele>1865.89</ele>
        <time>2014-05-09T05:57:56Z</time>
      </trkpt>
      <trkpt lat="45.22881" lon="6.17039">
        <ele>1869.95</ele>
        <time>2014-05-09T05:58:23Z</time>
      </trkpt>
      <trkpt lat="45.22864" lon="6.1703">
        <ele>1870.91</ele>
        <time>2014-05-09T05:58:54Z</time>
      </trkpt>
      <trkpt lat="45.22862" lon="6.17005">
        <ele>1881.38</ele>
        <time>2014-05-09T05:59:28Z</time>
      </trkpt>
      <trkpt lat="45.22869" lon="6.16981">
        <ele>1887.24</ele>
        <time>2014-05-09T06:00:00Z</time>
      </trkpt>
      <trkpt lat="45.22857" lon="6.16962">
        <ele>1898.46</ele>
        <time>2014-05-09T06:01:13Z</time>
      </trkpt>
      <trkpt lat="45.22861" lon="6.16937">
        <ele>1902.95</ele>
        <time>2014-05-09T06:02:24Z</time>
      </trkpt>
      <trkpt lat="45.22853" lon="6.16914">
        <ele>1903.38</ele>
        <time>2014-05-09T06:03:01Z</time>
      </trkpt>
      <trkpt lat="45.22836" lon="6.16901">
        <ele>1909.52</ele>
        <time>2014-05-09T06:06:12Z</time>
      </trkpt>
      <trkpt lat="45.22823" lon="6.16883">
        <ele>1920.35</ele>
        <time>2014-05-09T06:06:48Z</time>
      </trkpt>
      <trkpt lat="45.22807" lon="6.16871">
        <ele>1924.9</ele>
        <time>2014-05-09T06:07:18Z</time>
      </trkpt>
      <trkpt lat="45.22796" lon="6.16851">
        <ele>1942.18</ele>
        <time>2014-05-09T06:07:55Z</time>
      </trkpt>
      <trkpt lat="45.22784" lon="6.16831">
        <ele>1947.27</ele>
        <time>2014-05-09T06:08:30Z</time>
      </trkpt>
      <trkpt lat="45.22771" lon="6.16814">
        <ele>1944.5</ele>
        <time>2014-05-09T06:09:30Z</time>
      </trkpt>
      <trkpt lat="45.22755" lon="6.168">
        <ele>1939.32</ele>
        <time>2014-05-09T06:10:09Z</time>
      </trkpt>
      <trkpt lat="45.2274" lon="6.16784">
        <ele>1943.41</ele>
        <time>2014-05-09T06:10:45Z</time>
      </trkpt>
      <trkpt lat="45.22724" lon="6.16773">
        <ele>1953.48</ele>
        <time>2014-05-09T06:11:18Z</time>
      </trkpt>
      <trkpt lat="45.22709" lon="6.16759">
        <ele>1958.89</ele>
        <time>2014-05-09T06:11:53Z</time>
      </trkpt>
      <trkpt lat="45.22694" lon="6.16746">
        <ele>1963.47</ele>
        <time>2014-05-09T06:12:34Z</time>
      </trkpt>
      <trkpt lat="45.22679" lon="6.16731">
        <ele>1972.17</ele>
        <time>2014-05-09T06:13:08Z</time>
      </trkpt>
      <trkpt lat="45.22668" lon="6.1671">
        <ele>1965.65</ele>
        <time>2014-05-09T06:13:46Z</time>
      </trkpt>
      <trkpt lat="45.22651" lon="6.16699">
        <ele>1979.8</ele>
        <time>2014-05-09T06:14:21Z</time>
      </trkpt>
      <trkpt lat="45.22634" lon="6.1669">
        <ele>1981.76</ele>
        <time>2014-05-09T06:15:07Z</time>
      </trkpt>
      <trkpt lat="45.22616" lon="6.16688">
        <ele>1991.88</ele>
        <time>2014-05-09T06:15:46Z</time>
      </trkpt>
      <trkpt lat="45.22599" lon="6.1668">
        <ele>1998.39</ele>
        <time>2014-05-09T06:16:22Z</time>
      </trkpt>
      <trkpt lat="45.22581" lon="6.16672">
        <ele>2005.48</ele>
        <time>2014-05-09T06:16:55Z</time>
      </trkpt>
      <trkpt lat="45.22567" lon="6.16657">
        <ele>2005.25</ele>
        <time>2014-05-09T06:17:31Z</time>
      </trkpt>
      <trkpt lat="45.22549" lon="6.16649">
        <ele>2017.15</ele>
        <time>2014-05-09T06:18:04Z</time>
      </trkpt>
      <trkpt lat="45.22534" lon="6.16634">
        <ele>2015.86</ele>
        <time>2014-05-09T06:18:49Z</time>
      </trkpt>
      <trkpt lat="45.22518" lon="6.16622">
        <ele>2016.31</ele>
        <time>2014-05-09T06:19:30Z</time>
      </trkpt>
      <trkpt lat="45.22504" lon="6.16606">
        <ele>2021.49</ele>
        <time>2014-05-09T06:19:59Z</time>
      </trkpt>
      <trkpt lat="45.22487" lon="6.16595">
        <ele>2028.54</ele>
        <time>2014-05-09T06:20:40Z</time>
      </trkpt>
      <trkpt lat="45.22476" lon="6.16575">
        <ele>2026.28</ele>
        <time>2014-05-09T06:21:13Z</time>
      </trkpt>
      <trkpt lat="45.22459" lon="6.16563">
        <ele>2037.24</ele>
        <time>2014-05-09T06:21:46Z</time>
      </trkpt>
      <trkpt lat="45.22442" lon="6.16555">
        <ele>2039.98</ele>
        <time>2014-05-09T06:22:43Z</time>
      </trkpt>
      <trkpt lat="45.22424" lon="6.16546">
        <ele>2049.94</ele>
        <time>2014-05-09T06:23:06Z</time>
      </trkpt>
      <trkpt lat="45.22408" lon="6.16535">
        <ele>2056.45</ele>
        <time>2014-05-09T06:23:38Z</time>
      </trkpt>
      <trkpt lat="45.22392" lon="6.16521">
        <ele>2052.01</ele>
        <time>2014-05-09T06:24:17Z</time>
      </trkpt>
      <trkpt lat="45.22377" lon="6.16507">
        <ele>2056.98</ele>
        <time>2014-05-09T06:24:49Z</time>
      </trkpt>
      <trkpt lat="45.22359" lon="6.16501">
        <ele>2066.91</ele>
        <time>2014-05-09T06:25:19Z</time>
      </trkpt>
      <trkpt lat="45.22342" lon="6.16493">
        <ele>2074.12</ele>
        <time>2014-05-09T06:27:07Z</time>
      </trkpt>
      <trkpt lat="45.22325" lon="6.16481">
        <ele>2073.86</ele>
        <time>2014-05-09T06:27:47Z</time>
      </trkpt>
      <trkpt lat="45.22317" lon="6.16459">
        <ele>2069.02</ele>
        <time>2014-05-09T06:28:09Z</time>
      </trkpt>
      <trkpt lat="45.22302" lon="6.16443">
        <ele>2063.37</ele>
        <time>2014-05-09T06:28:50Z</time>
      </trkpt>
      <trkpt lat="45.22284" lon="6.16443">
        <ele>2081.56</ele>
        <time>2014-05-09T06:29:15Z</time>
      </trkpt>
      <trkpt lat="45.22267" lon="6.16433">
        <ele>2084.64</ele>
        <time>2014-05-09T06:29:48Z</time>
      </trkpt>
      <trkpt lat="45.2225" lon="6.16423">
        <ele>2082.83</ele>
        <time>2014-05-09T06:30:46Z</time>
      </trkpt>
      <trkpt lat="45.22232" lon="6.16422">
        <ele>2085.04</ele>
        <time>2014-05-09T06:31:15Z</time>
      </trkpt>
      <trkpt lat="45.22213" lon="6.16415">
        <ele>2085.46</ele>
        <time>2014-05-09T06:31:36Z</time>
      </trkpt>
      <trkpt lat="45.22194" lon="6.16411">
        <ele>2089.91</ele>
        <time>2014-05-09T06:31:59Z</time>
      </trkpt>
      <trkpt lat="45.22176" lon="6.16411">
        <ele>2095.8</ele>
        <time>2014-05-09T06:32:25Z</time>
      </trkpt>
      <trkpt lat="45.22158" lon="6.16417">
        <ele>2097.92</ele>
        <time>2014-05-09T06:32:49Z</time>
      </trkpt>
      <trkpt lat="45.2214" lon="6.16412">
        <ele>2097.98</ele>
        <time>2014-05-09T06:33:16Z</time>
      </trkpt>
      <trkpt lat="45.22122" lon="6.16409">
        <ele>2100.24</ele>
        <time>2014-05-09T06:33:42Z</time>
      </trkpt>
      <trkpt lat="45.22104" lon="6.16409">
        <ele>2104.88</ele>
        <time>2014-05-09T06:34:03Z</time>
      </trkpt>
      <trkpt lat="45.22086" lon="6.16414">
        <ele>2106.8</ele>
        <time>2014-05-09T06:35:00Z</time>
      </trkpt>
      <trkpt lat="45.2207" lon="6.16404">
        <ele>2109.41</ele>
        <time>2014-05-09T06:35:26Z</time>
      </trkpt>
      <trkpt lat="45.22053" lon="6.16394">
        <ele>2115.61</ele>
        <time>2014-05-09T06:35:53Z</time>
      </trkpt>
      <trkpt lat="45.22041" lon="6.16375">
        <ele>2123.92</ele>
        <time>2014-05-09T06:36:37Z</time>
      </trkpt>
      <trkpt lat="45.22024" lon="6.16365">
        <ele>2130.13</ele>
        <time>2014-05-09T06:37:24Z</time>
      </trkpt>
      <trkpt lat="45.22012" lon="6.16346">
        <ele>2133.26</ele>
        <time>2014-05-09T06:38:03Z</time>
      </trkpt>
      <trkpt lat="45.21998" lon="6.16329">
        <ele>2131.65</ele>
        <time>2014-05-09T06:38:36Z</time>
      </trkpt>
      <trkpt lat="45.21982" lon="6.16317">
        <ele>2137.34</ele>
        <time>2014-05-09T06:39:07Z</time>
      </trkpt>
      <trkpt lat="45.21966" lon="6.16305">
        <ele>2139.56</ele>
        <time>2014-05-09T06:39:42Z</time>
      </trkpt>
      <trkpt lat="45.21952" lon="6.16288">
        <ele>2144.53</ele>
        <time>2014-05-09T06:40:13Z</time>
      </trkpt>
      <trkpt lat="45.21934" lon="6.16281">
        <ele>2147.64</ele>
        <time>2014-05-09T06:40:47Z</time>
      </trkpt>
      <trkpt lat="45.21919" lon="6.16267">
        <ele>2145.61</ele>
        <time>2014-05-09T06:41:17Z</time>
      </trkpt>
      <trkpt lat="45.21902" lon="6.16258">
        <ele>2154.81</ele>
        <time>2014-05-09T06:41:53Z</time>
      </trkpt>
      <trkpt lat="45.21885" lon="6.16249">
        <ele>2157.98</ele>
        <time>2014-05-09T06:42:29Z</time>
      </trkpt>
      <trkpt lat="45.21869" lon="6.16236">
        <ele>2165.52</ele>
        <time>2014-05-09T06:43:06Z</time>
      </trkpt>
      <trkpt lat="45.21855" lon="6.16219">
        <ele>2170.45</ele>
        <time>2014-05-09T06:43:44Z</time>
      </trkpt>
      <trkpt lat="45.21842" lon="6.16199">
        <ele>2175.63</ele>
        <time>2014-05-09T06:45:19Z</time>
      </trkpt>
      <trkpt lat="45.21825" lon="6.1619">
        <ele>2175.6</ele>
        <time>2014-05-09T06:45:54Z</time>
      </trkpt>
      <trkpt lat="45.2181" lon="6.16176">
        <ele>2182.99</ele>
        <time>2014-05-09T06:46:31Z</time>
      </trkpt>
      <trkpt lat="45.21796" lon="6.1616">
        <ele>2187.55</ele>
        <time>2014-05-09T06:47:01Z</time>
      </trkpt>
      <trkpt lat="45.21779" lon="6.16153">
        <ele>2190.73</ele>
        <time>2014-05-09T06:47:24Z</time>
      </trkpt>
      <trkpt lat="45.21761" lon="6.16148">
        <ele>2189.02</ele>
        <time>2014-05-09T06:47:54Z</time>
      </trkpt>
      <trkpt lat="45.21744" lon="6.16136">
        <ele>2192.38</ele>
        <time>2014-05-09T06:48:25Z</time>
      </trkpt>
      <trkpt lat="45.21729" lon="6.16121">
        <ele>2196.81</ele>
        <time>2014-05-09T06:48:51Z</time>
      </trkpt>
      <trkpt lat="45.21714" lon="6.16108">
        <ele>2199.34</ele>
        <time>2014-05-09T06:49:20Z</time>
      </trkpt>
      <trkpt lat="45.21701" lon="6.1609">
        <ele>2199.06</ele>
        <time>2014-05-09T06:49:55Z</time>
      </trkpt>
      <trkpt lat="45.21688" lon="6.16071">
        <ele>2206.11</ele>
        <time>2014-05-09T06:50:24Z</time>
      </trkpt>
      <trkpt lat="45.21681" lon="6.16048">
        <ele>2211.6</ele>
        <time>2014-05-09T06:50:57Z</time>
      </trkpt>
      <trkpt lat="45.21672" lon="6.16024">
        <ele>2216.02</ele>
        <time>2014-05-09T06:51:44Z</time>
      </trkpt>
      <trkpt lat="45.21659" lon="6.16007">
        <ele>2221.41</ele>
        <time>2014-05-09T06:52:16Z</time>
      </trkpt>
      <trkpt lat="45.21644" lon="6.15992">
        <ele>2227.67</ele>
        <time>2014-05-09T06:52:55Z</time>
      </trkpt>
      <trkpt lat="45.21628" lon="6.15979">
        <ele>2232.69</ele>
        <time>2014-05-09T06:53:44Z</time>
      </trkpt>
      <trkpt lat="45.2161" lon="6.15974">
        <ele>2242.79</ele>
        <time>2014-05-09T06:54:21Z</time>
      </trkpt>
      <trkpt lat="45.21595" lon="6.15986">
        <ele>2250.45</ele>
        <time>2014-05-09T06:54:58Z</time>
      </trkpt>
      <trkpt lat="45.21577" lon="6.1598">
        <ele>2254</ele>
        <time>2014-05-09T06:56:43Z</time>
      </trkpt>
      <trkpt lat="45.21561" lon="6.15992">
        <ele>2260.4</ele>
        <time>2014-05-09T06:57:20Z</time>
      </trkpt>
      <trkpt lat="45.21555" lon="6.15968">
        <ele>2264.58</ele>
        <time>2014-05-09T06:58:21Z</time>
      </trkpt>
      <trkpt lat="45.21548" lon="6.15944">
        <ele>2266.09</ele>
        <time>2014-05-09T06:59:07Z</time>
      </trkpt>
      <trkpt lat="45.21545" lon="6.15918">
        <ele>2270.84</ele>
        <time>2014-05-09T06:59:35Z</time>
      </trkpt>
      <trkpt lat="45.21532" lon="6.15899">
        <ele>2275.11</ele>
        <time>2014-05-09T07:00:56Z</time>
      </trkpt>
      <trkpt lat="45.21516" lon="6.15889">
        <ele>2278.17</ele>
        <time>2014-05-09T07:01:29Z</time>
      </trkpt>
      <trkpt lat="45.21499" lon="6.15899">
        <ele>2281.03</ele>
        <time>2014-05-09T07:01:55Z</time>
      </trkpt>
      <trkpt lat="45.21481" lon="6.15903">
        <ele>2284.59</ele>
        <time>2014-05-09T07:02:21Z</time>
      </trkpt>
      <trkpt lat="45.21463" lon="6.15911">
        <ele>2285.85</ele>
        <time>2014-05-09T07:03:01Z</time>
      </trkpt>
      <trkpt lat="45.21463" lon="6.15936">
        <ele>2295.58</ele>
        <time>2014-05-09T07:04:01Z</time>
      </trkpt>
      <trkpt lat="45.21468" lon="6.15961">
        <ele>2300.58</ele>
        <time>2014-05-09T07:04:32Z</time>
      </trkpt>
      <trkpt lat="45.21462" lon="6.15985">
        <ele>2306.3</ele>
        <time>2014-05-09T07:05:09Z</time>
      </trkpt>
      <trkpt lat="45.21443" lon="6.15982">
        <ele>2307.43</ele>
        <time>2014-05-09T07:06:17Z</time>
      </trkpt>
      <trkpt lat="45.21426" lon="6.15976">
        <ele>2312.5</ele>
        <time>2014-05-09T07:06:51Z</time>
      </trkpt>
      <trkpt lat="45.21413" lon="6.15996">
        <ele>2319.67</ele>
        <time>2014-05-09T07:08:50Z</time>
      </trkpt>
      <trkpt lat="45.21414" lon="6.16022">
        <ele>2322.38</ele>
        <time>2014-05-09T07:09:38Z</time>
      </trkpt>
      <trkpt lat="45.21415" lon="6.16048">
        <ele>2325.36</ele>
        <time>2014-05-09T07:10:06Z</time>
      </trkpt>
      <trkpt lat="45.21406" lon="6.1607">
        <ele>2331.63</ele>
        <time>2014-05-09T07:10:52Z</time>
      </trkpt>
      <trkpt lat="45.21389" lon="6.16082">
        <ele>2333.36</ele>
        <time>2014-05-09T07:11:24Z</time>
      </trkpt>
      <trkpt lat="45.21394" lon="6.16107">
        <ele>2346.33</ele>
        <time>2014-05-09T07:12:32Z</time>
      </trkpt>
      <trkpt lat="45.21399" lon="6.16132">
        <ele>2349.73</ele>
        <time>2014-05-09T07:13:25Z</time>
      </trkpt>
      <trkpt lat="45.21386" lon="6.1615">
        <ele>2353.42</ele>
        <time>2014-05-09T07:14:12Z</time>
      </trkpt>
      <trkpt lat="45.2137" lon="6.16137">
        <ele>2353.84</ele>
        <time>2014-05-09T07:15:03Z</time>
      </trkpt>
      <trkpt lat="45.21352" lon="6.16133">
        <ele>2356.73</ele>
        <time>2014-05-09T07:15:28Z</time>
      </trkpt>
      <trkpt lat="45.21335" lon="6.16123">
        <ele>2365.82</ele>
        <time>2014-05-09T07:16:55Z</time>
      </trkpt>
      <trkpt lat="45.21317" lon="6.16119">
        <ele>2367.55</ele>
        <time>2014-05-09T07:17:32Z</time>
      </trkpt>
      <trkpt lat="45.21298" lon="6.16118">
        <ele>2369.64</ele>
        <time>2014-05-09T07:17:56Z</time>
      </trkpt>
      <trkpt lat="45.2128" lon="6.16124">
        <ele>2371.23</ele>
        <time>2014-05-09T07:18:23Z</time>
      </trkpt>
      <trkpt lat="45.21262" lon="6.16126">
        <ele>2373.71</ele>
        <time>2014-05-09T07:19:24Z</time>
      </trkpt>
      <trkpt lat="45.21244" lon="6.1613">
        <ele>2375.6</ele>
        <time>2014-05-09T07:19:48Z</time>
      </trkpt>
      <trkpt lat="45.21226" lon="6.16128">
        <ele>2377.19</ele>
        <time>2014-05-09T07:20:14Z</time>
      </trkpt>
      <trkpt lat="45.21208" lon="6.16122">
        <ele>2382.48</ele>
        <time>2014-05-09T07:20:44Z</time>
      </trkpt>
      <trkpt lat="45.21191" lon="6.16113">
        <ele>2381.3</ele>
        <time>2014-05-09T07:21:13Z</time>
      </trkpt>
      <trkpt lat="45.21174" lon="6.16103">
        <ele>2383.85</ele>
        <time>2014-05-09T07:21:40Z</time>
      </trkpt>
      <trkpt lat="45.21157" lon="6.16093">
        <ele>2382.37</ele>
        <time>2014-05-09T07:22:03Z</time>
      </trkpt>
      <trkpt lat="45.2114" lon="6.16084">
        <ele>2389.45</ele>
        <time>2014-05-09T07:22:24Z</time>
      </trkpt>
      <trkpt lat="45.21123" lon="6.16073">
        <ele>2387.09</ele>
        <time>2014-05-09T07:22:43Z</time>
      </trkpt>
      <trkpt lat="45.21105" lon="6.16067">
        <ele>2385.29</ele>
        <time>2014-05-09T07:23:06Z</time>
      </trkpt>
      <trkpt lat="45.21087" lon="6.16067">
        <ele>2388.59</ele>
        <time>2014-05-09T07:23:36Z</time>
      </trkpt>
      <trkpt lat="45.21068" lon="6.1607">
        <ele>2389.78</ele>
        <time>2014-05-09T07:23:59Z</time>
      </trkpt>
      <trkpt lat="45.21049" lon="6.1607">
        <ele>2391.2</ele>
        <time>2014-05-09T07:24:24Z</time>
      </trkpt>
      <trkpt lat="45.21032" lon="6.16067">
        <ele>2391.82</ele>
        <time>2014-05-09T07:24:44Z</time>
      </trkpt>
      <trkpt lat="45.21015" lon="6.16057">
        <ele>2391.36</ele>
        <time>2014-05-09T07:25:11Z</time>
      </trkpt>
      <trkpt lat="45.21011" lon="6.16031">
        <ele>2395.56</ele>
        <time>2014-05-09T07:25:36Z</time>
      </trkpt>
      <trkpt lat="45.21009" lon="6.16006">
        <ele>2394.64</ele>
        <time>2014-05-09T07:26:02Z</time>
      </trkpt>
      <trkpt lat="45.20999" lon="6.15984">
        <ele>2395.61</ele>
        <time>2014-05-09T07:26:30Z</time>
      </trkpt>
      <trkpt lat="45.20984" lon="6.1597">
        <ele>2396.08</ele>
        <time>2014-05-09T07:27:00Z</time>
      </trkpt>
      <trkpt lat="45.20965" lon="6.15965">
        <ele>2401.4</ele>
        <time>2014-05-09T07:27:39Z</time>
      </trkpt>
      <trkpt lat="45.20948" lon="6.15963">
        <ele>2405.57</ele>
        <time>2014-05-09T07:28:09Z</time>
      </trkpt>
      <trkpt lat="45.20929" lon="6.15967">
        <ele>2404.9</ele>
        <time>2014-05-09T07:28:51Z</time>
      </trkpt>
      <trkpt lat="45.20911" lon="6.15963">
        <ele>2407.72</ele>
        <time>2014-05-09T07:29:24Z</time>
      </trkpt>
      <trkpt lat="45.20893" lon="6.15958">
        <ele>2413.16</ele>
        <time>2014-05-09T07:29:54Z</time>
      </trkpt>
      <trkpt lat="45.20876" lon="6.15954">
        <ele>2420.2</ele>
        <time>2014-05-09T07:30:24Z</time>
      </trkpt>
      <trkpt lat="45.20858" lon="6.1596">
        <ele>2419.22</ele>
        <time>2014-05-09T07:31:51Z</time>
      </trkpt>
      <trkpt lat="45.20839" lon="6.15958">
        <ele>2422.09</ele>
        <time>2014-05-09T07:32:25Z</time>
      </trkpt>
      <trkpt lat="45.20825" lon="6.15942">
        <ele>2436.13</ele>
        <time>2014-05-09T07:33:00Z</time>
      </trkpt>
      <trkpt lat="45.20836" lon="6.15922">
        <ele>2437.11</ele>
        <time>2014-05-09T07:33:45Z</time>
      </trkpt>
      <trkpt lat="45.20824" lon="6.15903">
        <ele>2438.27</ele>
        <time>2014-05-09T07:37:31Z</time>
      </trkpt>
      <trkpt lat="45.20808" lon="6.1589">
        <ele>2446.3</ele>
        <time>2014-05-09T07:38:07Z</time>
      </trkpt>
      <trkpt lat="45.20792" lon="6.15879">
        <ele>2450.19</ele>
        <time>2014-05-09T07:38:45Z</time>
      </trkpt>
      <trkpt lat="45.20776" lon="6.15865">
        <ele>2454.16</ele>
        <time>2014-05-09T07:39:19Z</time>
      </trkpt>
      <trkpt lat="45.20759" lon="6.15858">
        <ele>2455.44</ele>
        <time>2014-05-09T07:39:56Z</time>
      </trkpt>
      <trkpt lat="45.20741" lon="6.15855">
        <ele>2460.29</ele>
        <time>2014-05-09T07:40:32Z</time>
      </trkpt>
      <trkpt lat="45.20723" lon="6.15851">
        <ele>2465.4</ele>
        <time>2014-05-09T07:41:06Z</time>
      </trkpt>
      <trkpt lat="45.20706" lon="6.15843">
        <ele>2468.77</ele>
        <time>2014-05-09T07:41:59Z</time>
      </trkpt>
      <trkpt lat="45.20687" lon="6.15841">
        <ele>2472.83</ele>
        <time>2014-05-09T07:42:32Z</time>
      </trkpt>
      <trkpt lat="45.20669" lon="6.15846">
        <ele>2483.67</ele>
        <time>2014-05-09T07:43:07Z</time>
      </trkpt>
      <trkpt lat="45.20652" lon="6.15853">
        <ele>2485.03</ele>
        <time>2014-05-09T07:43:43Z</time>
      </trkpt>
      <trkpt lat="45.20634" lon="6.15857">
        <ele>2487.92</ele>
        <time>2014-05-09T07:44:20Z</time>
      </trkpt>
      <trkpt lat="45.20616" lon="6.15852">
        <ele>2496.63</ele>
        <time>2014-05-09T07:45:27Z</time>
      </trkpt>
      <trkpt lat="45.20598" lon="6.15855">
        <ele>2499.78</ele>
        <time>2014-05-09T07:46:54Z</time>
      </trkpt>
      <trkpt lat="45.2058" lon="6.1586">
        <ele>2503.66</ele>
        <time>2014-05-09T07:47:30Z</time>
      </trkpt>
      <trkpt lat="45.20565" lon="6.15874">
        <ele>2508.53</ele>
        <time>2014-05-09T07:48:20Z</time>
      </trkpt>
      <trkpt lat="45.20547" lon="6.15881">
        <ele>2513.95</ele>
        <time>2014-05-09T07:49:39Z</time>
      </trkpt>
      <trkpt lat="45.2053" lon="6.15871">
        <ele>2517.55</ele>
        <time>2014-05-09T07:50:07Z</time>
      </trkpt>
      <trkpt lat="45.20516" lon="6.15854">
        <ele>2517.42</ele>
        <time>2014-05-09T07:50:38Z</time>
      </trkpt>
      <trkpt lat="45.205" lon="6.15841">
        <ele>2518.8</ele>
        <time>2014-05-09T07:51:02Z</time>
      </trkpt>
      <trkpt lat="45.20484" lon="6.15828">
        <ele>2520.13</ele>
        <time>2014-05-09T07:51:36Z</time>
      </trkpt>
      <trkpt lat="45.20465" lon="6.15826">
        <ele>2527.64</ele>
        <time>2014-05-09T07:52:01Z</time>
      </trkpt>
      <trkpt lat="45.20452" lon="6.15844">
        <ele>2526.58</ele>
        <time>2014-05-09T07:52:49Z</time>
      </trkpt>
      <trkpt lat="45.20442" lon="6.15866">
        <ele>2530.79</ele>
        <time>2014-05-09T07:53:18Z</time>
      </trkpt>
      <trkpt lat="45.20429" lon="6.15883">
        <ele>2535.96</ele>
        <time>2014-05-09T07:54:01Z</time>
      </trkpt>
      <trkpt lat="45.20413" lon="6.15894">
        <ele>2539.61</ele>
        <time>2014-05-09T07:54:29Z</time>
      </trkpt>
      <trkpt lat="45.20396" lon="6.15906">
        <ele>2539.59</ele>
        <time>2014-05-09T07:54:56Z</time>
      </trkpt>
      <trkpt lat="45.2038" lon="6.15917">
        <ele>2541.48</ele>
        <time>2014-05-09T07:55:22Z</time>
      </trkpt>
      <trkpt lat="45.20362" lon="6.15924">
        <ele>2539.13</ele>
        <time>2014-05-09T07:55:48Z</time>
      </trkpt>
      <trkpt lat="45.20344" lon="6.15921">
        <ele>2538</ele>
        <time>2014-05-09T07:56:11Z</time>
      </trkpt>
      <trkpt lat="45.20327" lon="6.15927">
        <ele>2542.05</ele>
        <time>2014-05-09T07:56:33Z</time>
      </trkpt>
      <trkpt lat="45.20309" lon="6.15936">
        <ele>2543.89</ele>
        <time>2014-05-09T07:57:00Z</time>
      </trkpt>
      <trkpt lat="45.20292" lon="6.15944">
        <ele>2543.66</ele>
        <time>2014-05-09T07:57:45Z</time>
      </trkpt>
      <trkpt lat="45.20274" lon="6.15949">
        <ele>2548.58</ele>
        <time>2014-05-09T07:58:12Z</time>
      </trkpt>
      <trkpt lat="45.20258" lon="6.15961">
        <ele>2551.23</ele>
        <time>2014-05-09T07:58:42Z</time>
      </trkpt>
      <trkpt lat="45.2024" lon="6.15967">
        <ele>2550.5</ele>
        <time>2014-05-09T08:01:30Z</time>
      </trkpt>
      <trkpt lat="45.20223" lon="6.15973">
        <ele>2550.63</ele>
        <time>2014-05-09T08:02:13Z</time>
      </trkpt>
      <trkpt lat="45.20206" lon="6.15984">
        <ele>2553.39</ele>
        <time>2014-05-09T08:02:38Z</time>
      </trkpt>
      <trkpt lat="45.20189" lon="6.15993">
        <ele>2552.19</ele>
        <time>2014-05-09T08:02:55Z</time>
      </trkpt>
      <trkpt lat="45.20187" lon="6.16019">
        <ele>2555.33</ele>
        <time>2014-05-09T08:06:56Z</time>
      </trkpt>
      <trkpt lat="45.20179" lon="6.16042">
        <ele>2556.79</ele>
        <time>2014-05-09T08:07:22Z</time>
      </trkpt>
      <trkpt lat="45.20164" lon="6.16057">
        <ele>2560.8</ele>
        <time>2014-05-09T08:08:30Z</time>
      </trkpt>
      <trkpt lat="45.20146" lon="6.16061">
        <ele>2561.3</ele>
        <time>2014-05-09T08:08:56Z</time>
      </trkpt>
      <trkpt lat="45.20129" lon="6.1607">
        <ele>2564.07</ele>
        <time>2014-05-09T08:09:19Z</time>
      </trkpt>
      <trkpt lat="45.20113" lon="6.16081">
        <ele>2563.47</ele>
        <time>2014-05-09T08:09:44Z</time>
      </trkpt>
      <trkpt lat="45.20097" lon="6.16093">
        <ele>2567.44</ele>
        <time>2014-05-09T08:10:39Z</time>
      </trkpt>
      <trkpt lat="45.20079" lon="6.16094">
        <ele>2567.25</ele>
        <time>2014-05-09T08:10:57Z</time>
      </trkpt>
      <trkpt lat="45.20061" lon="6.16103">
        <ele>2566.89</ele>
        <time>2014-05-09T08:11:16Z</time>
      </trkpt>
      <trkpt lat="45.20044" lon="6.16114">
        <ele>2568.04</ele>
        <time>2014-05-09T08:11:37Z</time>
      </trkpt>
      <trkpt lat="45.20027" lon="6.16125">
        <ele>2569.65</ele>
        <time>2014-05-09T08:12:33Z</time>
      </trkpt>
      <trkpt lat="45.20011" lon="6.16138">
        <ele>2566.83</ele>
        <time>2014-05-09T08:12:53Z</time>
      </trkpt>
      <trkpt lat="45.19994" lon="6.16149">
        <ele>2569.63</ele>
        <time>2014-05-09T08:13:17Z</time>
      </trkpt>
      <trkpt lat="45.19977" lon="6.16158">
        <ele>2569.23</ele>
        <time>2014-05-09T08:14:01Z</time>
      </trkpt>
      <trkpt lat="45.19959" lon="6.16175">
        <ele>2566.92</ele>
        <time>2014-05-09T08:14:09Z</time>
      </trkpt>
      <trkpt lat="45.19943" lon="6.16191">
        <ele>2561.93</ele>
        <time>2014-05-09T08:14:13Z</time>
      </trkpt>
      <trkpt lat="45.19925" lon="6.16208">
        <ele>2557.11</ele>
        <time>2014-05-09T08:14:18Z</time>
      </trkpt>
      <trkpt lat="45.19907" lon="6.16225">
        <ele>2552.61</ele>
        <time>2014-05-09T08:14:22Z</time>
      </trkpt>
      <trkpt lat="45.1989" lon="6.16237">
        <ele>2550.59</ele>
        <time>2014-05-09T08:14:36Z</time>
      </trkpt>
      <trkpt lat="45.19872" lon="6.16242">
        <ele>2551.94</ele>
        <time>2014-05-09T08:14:56Z</time>
      </trkpt>
      <trkpt lat="45.19854" lon="6.16241">
        <ele>2555.55</ele>
        <time>2014-05-09T08:15:30Z</time>
      </trkpt>
      <trkpt lat="45.19837" lon="6.16233">
        <ele>2560</ele>
        <time>2014-05-09T08:15:58Z</time>
      </trkpt>
      <trkpt lat="45.19827" lon="6.16255">
        <ele>2562.47</ele>
        <time>2014-05-09T08:16:40Z</time>
      </trkpt>
      <trkpt lat="45.1981" lon="6.16262">
        <ele>2568.55</ele>
        <time>2014-05-09T08:17:14Z</time>
      </trkpt>
      <trkpt lat="45.19791" lon="6.16263">
        <ele>2572.78</ele>
        <time>2014-05-09T08:18:01Z</time>
      </trkpt>
      <trkpt lat="45.19773" lon="6.16259">
        <ele>2575.14</ele>
        <time>2014-05-09T08:18:31Z</time>
      </trkpt>
      <trkpt lat="45.19777" lon="6.16284">
        <ele>2579.97</ele>
        <time>2014-05-09T08:19:15Z</time>
      </trkpt>
      <trkpt lat="45.1978" lon="6.1631">
        <ele>2578.39</ele>
        <time>2014-05-09T08:19:51Z</time>
      </trkpt>
      <trkpt lat="45.19774" lon="6.16334">
        <ele>2574.22</ele>
        <time>2014-05-09T08:20:33Z</time>
      </trkpt>
      <trkpt lat="45.19768" lon="6.1636">
        <ele>2592.64</ele>
        <time>2014-05-09T08:20:54Z</time>
      </trkpt>
      <trkpt lat="45.19758" lon="6.16381">
        <ele>2596.93</ele>
        <time>2014-05-09T08:21:17Z</time>
      </trkpt>
      <trkpt lat="45.1974" lon="6.16391">
        <ele>2601.09</ele>
        <time>2014-05-09T08:23:21Z</time>
      </trkpt>
      <trkpt lat="45.19722" lon="6.16385">
        <ele>2602.7</ele>
        <time>2014-05-09T08:25:28Z</time>
      </trkpt>
      <trkpt lat="45.19705" lon="6.16375">
        <ele>2605.69</ele>
        <time>2014-05-09T08:25:58Z</time>
      </trkpt>
      <trkpt lat="45.19688" lon="6.16366">
        <ele>2613.32</ele>
        <time>2014-05-09T08:27:13Z</time>
      </trkpt>
      <trkpt lat="45.1967" lon="6.16361">
        <ele>2615.3</ele>
        <time>2014-05-09T08:27:47Z</time>
      </trkpt>
      <trkpt lat="45.19653" lon="6.16353">
        <ele>2619.14</ele>
        <time>2014-05-09T08:28:22Z</time>
      </trkpt>
      <trkpt lat="45.19635" lon="6.16346">
        <ele>2622.44</ele>
        <time>2014-05-09T08:28:55Z</time>
      </trkpt>
      <trkpt lat="45.19619" lon="6.16358">
        <ele>2624.31</ele>
        <time>2014-05-09T08:30:54Z</time>
      </trkpt>
      <trkpt lat="45.19601" lon="6.16361">
        <ele>2628.34</ele>
        <time>2014-05-09T08:31:29Z</time>
      </trkpt>
      <trkpt lat="45.19583" lon="6.16361">
        <ele>2632.6</ele>
        <time>2014-05-09T08:31:55Z</time>
      </trkpt>
      <trkpt lat="45.19565" lon="6.16366">
        <ele>2633.88</ele>
        <time>2014-05-09T08:32:29Z</time>
      </trkpt>
      <trkpt lat="45.1955" lon="6.16388">
        <ele>2634.16</ele>
        <time>2014-05-09T08:32:42Z</time>
      </trkpt>
      <trkpt lat="45.1954" lon="6.16409">
        <ele>2630.26</ele>
        <time>2014-05-09T08:33:05Z</time>
      </trkpt>
      <trkpt lat="45.19521" lon="6.1641">
        <ele>2633.89</ele>
        <time>2014-05-09T08:35:42Z</time>
      </trkpt>
      <trkpt lat="45.19503" lon="6.16414">
        <ele>2634.76</ele>
        <time>2014-05-09T08:36:05Z</time>
      </trkpt>
      <trkpt lat="45.19485" lon="6.16413">
        <ele>2634.79</ele>
        <time>2014-05-09T08:36:32Z</time>
      </trkpt>
      <trkpt lat="45.19467" lon="6.16419">
        <ele>2639.22</ele>
        <time>2014-05-09T08:37:18Z</time>
      </trkpt>
      <trkpt lat="45.19449" lon="6.16423">
        <ele>2640.66</ele>
        <time>2014-05-09T08:37:50Z</time>
      </trkpt>
      <trkpt lat="45.19431" lon="6.16431">
        <ele>2646.25</ele>
        <time>2014-05-09T08:38:23Z</time>
      </trkpt>
      <trkpt lat="45.19413" lon="6.16434">
        <ele>2650.04</ele>
        <time>2014-05-09T08:39:08Z</time>
      </trkpt>
      <trkpt lat="45.19395" lon="6.16439">
        <ele>2652.23</ele>
        <time>2014-05-09T08:45:25Z</time>
      </trkpt>
      <trkpt lat="45.19378" lon="6.16447">
        <ele>2657.15</ele>
        <time>2014-05-09T08:45:58Z</time>
      </trkpt>
      <trkpt lat="45.19361" lon="6.16457">
        <ele>2664.5</ele>
        <time>2014-05-09T08:46:36Z</time>
      </trkpt>
      <trkpt lat="45.19344" lon="6.16465">
        <ele>2666.7</ele>
        <time>2014-05-09T08:47:15Z</time>
      </trkpt>
      <trkpt lat="45.19327" lon="6.16457">
        <ele>2677.51</ele>
        <time>2014-05-09T08:48:21Z</time>
      </trkpt>
      <trkpt lat="45.19309" lon="6.16451">
        <ele>2682.77</ele>
        <time>2014-05-09T08:48:55Z</time>
      </trkpt>
      <trkpt lat="45.19293" lon="6.16438">
        <ele>2684.81</ele>
        <time>2014-05-09T08:49:41Z</time>
      </trkpt>
      <trkpt lat="45.19275" lon="6.16431">
        <ele>2685.74</ele>
        <time>2014-05-09T08:50:24Z</time>
      </trkpt>
      <trkpt lat="45.19257" lon="6.16427">
        <ele>2690.08</ele>
        <time>2014-05-09T08:51:04Z</time>
      </trkpt>
      <trkpt lat="45.19239" lon="6.16423">
        <ele>2698.93</ele>
        <time>2014-05-09T08:51:42Z</time>
      </trkpt>
      <trkpt lat="45.19221" lon="6.16422">
        <ele>2702.67</ele>
        <time>2014-05-09T08:52:20Z</time>
      </trkpt>
      <trkpt lat="45.19203" lon="6.16419">
        <ele>2704.21</ele>
        <time>2014-05-09T08:53:02Z</time>
      </trkpt>
      <trkpt lat="45.19185" lon="6.16419">
        <ele>2710.46</ele>
        <time>2014-05-09T08:58:07Z</time>
      </trkpt>
      <trkpt lat="45.19167" lon="6.1641">
        <ele>2712.25</ele>
        <time>2014-05-09T08:58:38Z</time>
      </trkpt>
      <trkpt lat="45.19149" lon="6.16406">
        <ele>2717.35</ele>
        <time>2014-05-09T08:59:32Z</time>
      </trkpt>
      <trkpt lat="45.19131" lon="6.164">
        <ele>2734.58</ele>
        <time>2014-05-09T09:00:18Z</time>
      </trkpt>
      <trkpt lat="45.19116" lon="6.16386">
        <ele>2728.5</ele>
        <time>2014-05-09T09:01:27Z</time>
      </trkpt>
      <trkpt lat="45.19109" lon="6.16362">
        <ele>2737.54</ele>
        <time>2014-05-09T09:02:21Z</time>
      </trkpt>
      <trkpt lat="45.19095" lon="6.16377">
        <ele>2741.27</ele>
        <time>2014-05-09T09:03:28Z</time>
      </trkpt>
      <trkpt lat="45.19081" lon="6.16359">
        <ele>2746.6</ele>
        <time>2014-05-09T09:05:04Z</time>
      </trkpt>
      <trkpt lat="45.19063" lon="6.16361">
        <ele>2770.45</ele>
        <time>2014-05-09T09:06:42Z</time>
      </trkpt>
      <trkpt lat="45.19045" lon="6.16365">
        <ele>2768.8</ele>
        <time>2014-05-09T09:07:24Z</time>
      </trkpt>
      <trkpt lat="45.19028" lon="6.1637">
        <ele>2785.13</ele>
        <time>2014-05-09T09:08:28Z</time>
      </trkpt>
      <trkpt lat="45.19012" lon="6.16383">
        <ele>2792</ele>
        <time>2014-05-09T09:10:43Z</time>
      </trkpt>
      <trkpt lat="45.19" lon="6.16403">
        <ele>2797.76</ele>
        <time>2014-05-09T09:11:37Z</time>
      </trkpt>
      <trkpt lat="45.18982" lon="6.16397">
        <ele>2769.48</ele>
        <time>2014-05-09T09:12:21Z</time>
      </trkpt>
      <trkpt lat="45.18966" lon="6.16383">
        <ele>2827.33</ele>
        <time>2014-05-09T09:13:29Z</time>
      </trkpt>
      <trkpt lat="45.18956" lon="6.16362">
        <ele>2824.4</ele>
        <time>2014-05-09T09:14:34Z</time>
      </trkpt>
      <trkpt lat="45.18946" lon="6.16339">
        <ele>2826.87</ele>
        <time>2014-05-09T09:15:26Z</time>
      </trkpt>
      <trkpt lat="45.18942" lon="6.16315">
        <ele>2819.4</ele>
        <time>2014-05-09T09:16:39Z</time>
      </trkpt>
      <trkpt lat="45.18926" lon="6.16302">
        <ele>2832.54</ele>
        <time>2014-05-09T09:18:05Z</time>
      </trkpt>
      <trkpt lat="45.1891" lon="6.16289">
        <ele>2837.08</ele>
        <time>2014-05-09T09:18:41Z</time>
      </trkpt>
      <trkpt lat="45.18893" lon="6.16279">
        <ele>2841.97</ele>
        <time>2014-05-09T09:19:47Z</time>
      </trkpt>
      <trkpt lat="45.18878" lon="6.16266">
        <ele>2846.62</ele>
        <time>2014-05-09T09:20:25Z</time>
      </trkpt>
      <trkpt lat="45.18878" lon="6.1624">
        <ele>2858.69</ele>
        <time>2014-05-09T09:22:10Z</time>
      </trkpt>
      <trkpt lat="45.18875" lon="6.16215">
        <ele>2871.28</ele>
        <time>2014-05-09T09:25:39Z</time>
      </trkpt>
      <trkpt lat="45.18885" lon="6.16236">
        <ele>2868.63</ele>
        <time>2014-05-09T09:35:14Z</time>
      </trkpt>
      <trkpt lat="45.18893" lon="6.16261">
        <ele>2857.96</ele>
        <time>2014-05-09T09:35:25Z</time>
      </trkpt>
      <trkpt lat="45.18881" lon="6.16283">
        <ele>2852.31</ele>
        <time>2014-05-09T09:35:30Z</time>
      </trkpt>
      <trkpt lat="45.18893" lon="6.16302">
        <ele>2847.81</ele>
        <time>2014-05-09T09:35:34Z</time>
      </trkpt>
      <trkpt lat="45.18913" lon="6.16313">
        <ele>2841.9</ele>
        <time>2014-05-09T09:35:38Z</time>
      </trkpt>
      <trkpt lat="45.18923" lon="6.1634">
        <ele>2824.08</ele>
        <time>2014-05-09T09:36:01Z</time>
      </trkpt>
      <trkpt lat="45.18933" lon="6.16367">
        <ele>2820.9</ele>
        <time>2014-05-09T09:36:05Z</time>
      </trkpt>
      <trkpt lat="45.18947" lon="6.16385">
        <ele>2817.31</ele>
        <time>2014-05-09T09:36:08Z</time>
      </trkpt>
      <trkpt lat="45.18969" lon="6.16377">
        <ele>2810.19</ele>
        <time>2014-05-09T09:36:12Z</time>
      </trkpt>
      <trkpt lat="45.18981" lon="6.16356">
        <ele>2801.87</ele>
        <time>2014-05-09T09:36:17Z</time>
      </trkpt>
      <trkpt lat="45.18996" lon="6.1637">
        <ele>2791.94</ele>
        <time>2014-05-09T09:36:31Z</time>
      </trkpt>
      <trkpt lat="45.19007" lon="6.16391">
        <ele>2789.88</ele>
        <time>2014-05-09T09:36:35Z</time>
      </trkpt>
      <trkpt lat="45.19015" lon="6.16361">
        <ele>2781.91</ele>
        <time>2014-05-09T09:36:39Z</time>
      </trkpt>
      <trkpt lat="45.19034" lon="6.16377">
        <ele>2779.78</ele>
        <time>2014-05-09T09:36:43Z</time>
      </trkpt>
      <trkpt lat="45.19054" lon="6.16372">
        <ele>2767.03</ele>
        <time>2014-05-09T09:37:15Z</time>
      </trkpt>
      <trkpt lat="45.19075" lon="6.16371">
        <ele>2758.09</ele>
        <time>2014-05-09T09:37:20Z</time>
      </trkpt>
      <trkpt lat="45.1909" lon="6.16395">
        <ele>2756.67</ele>
        <time>2014-05-09T09:37:24Z</time>
      </trkpt>
      <trkpt lat="45.19108" lon="6.16395">
        <ele>2746.53</ele>
        <time>2014-05-09T09:37:31Z</time>
      </trkpt>
      <trkpt lat="45.19127" lon="6.16401">
        <ele>2739.12</ele>
        <time>2014-05-09T09:37:38Z</time>
      </trkpt>
      <trkpt lat="45.19139" lon="6.16423">
        <ele>2739.12</ele>
        <time>2014-05-09T09:37:43Z</time>
      </trkpt>
      <trkpt lat="45.19151" lon="6.16398">
        <ele>2719.91</ele>
        <time>2014-05-09T09:38:04Z</time>
      </trkpt>
      <trkpt lat="45.19171" lon="6.16398">
        <ele>2718.03</ele>
        <time>2014-05-09T09:38:09Z</time>
      </trkpt>
      <trkpt lat="45.1919" lon="6.16397">
        <ele>2717.04</ele>
        <time>2014-05-09T09:38:12Z</time>
      </trkpt>
      <trkpt lat="45.19211" lon="6.16411">
        <ele>2714.69</ele>
        <time>2014-05-09T09:38:15Z</time>
      </trkpt>
      <trkpt lat="45.19235" lon="6.16422">
        <ele>2709.66</ele>
        <time>2014-05-09T09:38:18Z</time>
      </trkpt>
      <trkpt lat="45.19261" lon="6.16421">
        <ele>2703.85</ele>
        <time>2014-05-09T09:38:21Z</time>
      </trkpt>
      <trkpt lat="45.19282" lon="6.16413">
        <ele>2699.3</ele>
        <time>2014-05-09T09:38:24Z</time>
      </trkpt>
      <trkpt lat="45.19302" lon="6.164">
        <ele>2693.98</ele>
        <time>2014-05-09T09:38:29Z</time>
      </trkpt>
      <trkpt lat="45.19319" lon="6.16382">
        <ele>2690.5</ele>
        <time>2014-05-09T09:38:33Z</time>
      </trkpt>
      <trkpt lat="45.19339" lon="6.16385">
        <ele>2686.18</ele>
        <time>2014-05-09T09:38:37Z</time>
      </trkpt>
      <trkpt lat="45.19355" lon="6.16399">
        <ele>2683.12</ele>
        <time>2014-05-09T09:38:39Z</time>
      </trkpt>
      <trkpt lat="45.1938" lon="6.16408">
        <ele>2676.93</ele>
        <time>2014-05-09T09:38:42Z</time>
      </trkpt>
      <trkpt lat="45.19398" lon="6.1643">
        <ele>2673.35</ele>
        <time>2014-05-09T09:38:44Z</time>
      </trkpt>
      <trkpt lat="45.19417" lon="6.16451">
        <ele>2668.33</ele>
        <time>2014-05-09T09:38:46Z</time>
      </trkpt>
      <trkpt lat="45.19439" lon="6.16447">
        <ele>2662.32</ele>
        <time>2014-05-09T09:38:48Z</time>
      </trkpt>
      <trkpt lat="45.19464" lon="6.16436">
        <ele>2655.38</ele>
        <time>2014-05-09T09:38:50Z</time>
      </trkpt>
      <trkpt lat="45.19486" lon="6.16421">
        <ele>2647.98</ele>
        <time>2014-05-09T09:38:52Z</time>
      </trkpt>
      <trkpt lat="45.19505" lon="6.16409">
        <ele>2641.69</ele>
        <time>2014-05-09T09:38:54Z</time>
      </trkpt>
      <trkpt lat="45.19526" lon="6.164">
        <ele>2634.31</ele>
        <time>2014-05-09T09:38:58Z</time>
      </trkpt>
      <trkpt lat="45.19544" lon="6.16392">
        <ele>2630.71</ele>
        <time>2014-05-09T09:39:03Z</time>
      </trkpt>
      <trkpt lat="45.19562" lon="6.16389">
        <ele>2631.38</ele>
        <time>2014-05-09T09:39:08Z</time>
      </trkpt>
      <trkpt lat="45.19581" lon="6.1639">
        <ele>2633.11</ele>
        <time>2014-05-09T09:39:20Z</time>
      </trkpt>
      <trkpt lat="45.196" lon="6.1639">
        <ele>2631.51</ele>
        <time>2014-05-09T09:39:34Z</time>
      </trkpt>
      <trkpt lat="45.19617" lon="6.16378">
        <ele>2627.77</ele>
        <time>2014-05-09T09:39:48Z</time>
      </trkpt>
      <trkpt lat="45.19637" lon="6.16364">
        <ele>2626.98</ele>
        <time>2014-05-09T09:39:55Z</time>
      </trkpt>
      <trkpt lat="45.19658" lon="6.16378">
        <ele>2625.43</ele>
        <time>2014-05-09T09:39:59Z</time>
      </trkpt>
      <trkpt lat="45.1968" lon="6.16377">
        <ele>2622.53</ele>
        <time>2014-05-09T09:40:05Z</time>
      </trkpt>
      <trkpt lat="45.19697" lon="6.16393">
        <ele>2620.23</ele>
        <time>2014-05-09T09:40:08Z</time>
      </trkpt>
      <trkpt lat="45.19717" lon="6.16376">
        <ele>2608.44</ele>
        <time>2014-05-09T09:40:12Z</time>
      </trkpt>
      <trkpt lat="45.19737" lon="6.16385">
        <ele>2604.1</ele>
        <time>2014-05-09T09:40:15Z</time>
      </trkpt>
      <trkpt lat="45.19754" lon="6.16375">
        <ele>2596.42</ele>
        <time>2014-05-09T09:40:18Z</time>
      </trkpt>
      <trkpt lat="45.19773" lon="6.16363">
        <ele>2589.31</ele>
        <time>2014-05-09T09:40:21Z</time>
      </trkpt>
      <trkpt lat="45.19782" lon="6.16337">
        <ele>2586.48</ele>
        <time>2014-05-09T09:40:24Z</time>
      </trkpt>
      <trkpt lat="45.19797" lon="6.16316">
        <ele>2582.93</ele>
        <time>2014-05-09T09:40:28Z</time>
      </trkpt>
      <trkpt lat="45.19816" lon="6.16313">
        <ele>2583.26</ele>
        <time>2014-05-09T09:40:31Z</time>
      </trkpt>
      <trkpt lat="45.19836" lon="6.16309">
        <ele>2580.43</ele>
        <time>2014-05-09T09:40:35Z</time>
      </trkpt>
      <trkpt lat="45.19854" lon="6.163">
        <ele>2575.5</ele>
        <time>2014-05-09T09:40:38Z</time>
      </trkpt>
      <trkpt lat="45.19872" lon="6.16291">
        <ele>2572.39</ele>
        <time>2014-05-09T09:40:41Z</time>
      </trkpt>
      <trkpt lat="45.19894" lon="6.16289">
        <ele>2569.7</ele>
        <time>2014-05-09T09:40:44Z</time>
      </trkpt>
      <trkpt lat="45.19916" lon="6.16291">
        <ele>2566.87</ele>
        <time>2014-05-09T09:40:47Z</time>
      </trkpt>
      <trkpt lat="45.19936" lon="6.16293">
        <ele>2564.23</ele>
        <time>2014-05-09T09:40:50Z</time>
      </trkpt>
      <trkpt lat="45.19956" lon="6.16296">
        <ele>2562.1</ele>
        <time>2014-05-09T09:40:53Z</time>
      </trkpt>
      <trkpt lat="45.19977" lon="6.16303">
        <ele>2558.89</ele>
        <time>2014-05-09T09:40:56Z</time>
      </trkpt>
      <trkpt lat="45.19998" lon="6.16314">
        <ele>2556.93</ele>
        <time>2014-05-09T09:40:59Z</time>
      </trkpt>
      <trkpt lat="45.20017" lon="6.16326">
        <ele>2554.73</ele>
        <time>2014-05-09T09:41:02Z</time>
      </trkpt>
      <trkpt lat="45.20037" lon="6.16334">
        <ele>2552.17</ele>
        <time>2014-05-09T09:41:05Z</time>
      </trkpt>
      <trkpt lat="45.20061" lon="6.16341">
        <ele>2549.75</ele>
        <time>2014-05-09T09:41:08Z</time>
      </trkpt>
      <trkpt lat="45.20084" lon="6.16347">
        <ele>2546.12</ele>
        <time>2014-05-09T09:41:11Z</time>
      </trkpt>
      <trkpt lat="45.20103" lon="6.16346">
        <ele>2544.24</ele>
        <time>2014-05-09T09:41:35Z</time>
      </trkpt>
      <trkpt lat="45.20119" lon="6.16322">
        <ele>2541.7</ele>
        <time>2014-05-09T09:41:39Z</time>
      </trkpt>
      <trkpt lat="45.20131" lon="6.16301">
        <ele>2539.28</ele>
        <time>2014-05-09T09:41:41Z</time>
      </trkpt>
      <trkpt lat="45.20151" lon="6.16281">
        <ele>2535.14</ele>
        <time>2014-05-09T09:41:44Z</time>
      </trkpt>
      <trkpt lat="45.20177" lon="6.16267">
        <ele>2531.22</ele>
        <time>2014-05-09T09:41:47Z</time>
      </trkpt>
      <trkpt lat="45.20197" lon="6.16254">
        <ele>2526.79</ele>
        <time>2014-05-09T09:41:50Z</time>
      </trkpt>
      <trkpt lat="45.20216" lon="6.16243">
        <ele>2522.5</ele>
        <time>2014-05-09T09:41:53Z</time>
      </trkpt>
      <trkpt lat="45.20241" lon="6.16234">
        <ele>2518.04</ele>
        <time>2014-05-09T09:41:56Z</time>
      </trkpt>
      <trkpt lat="45.2026" lon="6.1623">
        <ele>2514.6</ele>
        <time>2014-05-09T09:41:58Z</time>
      </trkpt>
      <trkpt lat="45.2028" lon="6.16228">
        <ele>2512.51</ele>
        <time>2014-05-09T09:42:01Z</time>
      </trkpt>
      <trkpt lat="45.20298" lon="6.16226">
        <ele>2509.46</ele>
        <time>2014-05-09T09:42:06Z</time>
      </trkpt>
      <trkpt lat="45.20314" lon="6.16212">
        <ele>2506.12</ele>
        <time>2014-05-09T09:42:11Z</time>
      </trkpt>
      <trkpt lat="45.20333" lon="6.16214">
        <ele>2506.5</ele>
        <time>2014-05-09T09:42:17Z</time>
      </trkpt>
      <trkpt lat="45.20354" lon="6.16206">
        <ele>2505.98</ele>
        <time>2014-05-09T09:42:21Z</time>
      </trkpt>
      <trkpt lat="45.20376" lon="6.16202">
        <ele>2502.7</ele>
        <time>2014-05-09T09:42:24Z</time>
      </trkpt>
      <trkpt lat="45.204" lon="6.16205">
        <ele>2503.27</ele>
        <time>2014-05-09T09:42:27Z</time>
      </trkpt>
      <trkpt lat="45.2042" lon="6.16214">
        <ele>2504.13</ele>
        <time>2014-05-09T09:42:31Z</time>
      </trkpt>
      <trkpt lat="45.20436" lon="6.16227">
        <ele>2515.27</ele>
        <time>2014-05-09T09:43:00Z</time>
      </trkpt>
      <trkpt lat="45.20455" lon="6.16234">
        <ele>2520.8</ele>
        <time>2014-05-09T09:43:09Z</time>
      </trkpt>
      <trkpt lat="45.20472" lon="6.16244">
        <ele>2506.36</ele>
        <time>2014-05-09T09:43:20Z</time>
      </trkpt>
      <trkpt lat="45.2049" lon="6.16259">
        <ele>2498.15</ele>
        <time>2014-05-09T09:43:26Z</time>
      </trkpt>
      <trkpt lat="45.2051" lon="6.16272">
        <ele>2489.62</ele>
        <time>2014-05-09T09:43:30Z</time>
      </trkpt>
      <trkpt lat="45.20532" lon="6.16286">
        <ele>2481.26</ele>
        <time>2014-05-09T09:43:34Z</time>
      </trkpt>
      <trkpt lat="45.20547" lon="6.16304">
        <ele>2476.09</ele>
        <time>2014-05-09T09:43:37Z</time>
      </trkpt>
      <trkpt lat="45.20563" lon="6.16327">
        <ele>2469.42</ele>
        <time>2014-05-09T09:43:40Z</time>
      </trkpt>
      <trkpt lat="45.20582" lon="6.16346">
        <ele>2462.09</ele>
        <time>2014-05-09T09:43:43Z</time>
      </trkpt>
      <trkpt lat="45.20601" lon="6.1636">
        <ele>2456.14</ele>
        <time>2014-05-09T09:43:46Z</time>
      </trkpt>
      <trkpt lat="45.20617" lon="6.16377">
        <ele>2452.69</ele>
        <time>2014-05-09T09:43:50Z</time>
      </trkpt>
      <trkpt lat="45.2063" lon="6.16395">
        <ele>2448.26</ele>
        <time>2014-05-09T09:43:56Z</time>
      </trkpt>
      <trkpt lat="45.20648" lon="6.16401">
        <ele>2441.65</ele>
        <time>2014-05-09T09:44:11Z</time>
      </trkpt>
      <trkpt lat="45.20667" lon="6.16415">
        <ele>2441.73</ele>
        <time>2014-05-09T09:44:20Z</time>
      </trkpt>
      <trkpt lat="45.20689" lon="6.16425">
        <ele>2439.98</ele>
        <time>2014-05-09T09:44:36Z</time>
      </trkpt>
      <trkpt lat="45.2071" lon="6.16428">
        <ele>2438.42</ele>
        <time>2014-05-09T09:44:50Z</time>
      </trkpt>
      <trkpt lat="45.20729" lon="6.16427">
        <ele>2436.37</ele>
        <time>2014-05-09T09:44:55Z</time>
      </trkpt>
      <trkpt lat="45.20748" lon="6.16432">
        <ele>2435.5</ele>
        <time>2014-05-09T09:45:00Z</time>
      </trkpt>
      <trkpt lat="45.20767" lon="6.16439">
        <ele>2433.94</ele>
        <time>2014-05-09T09:45:03Z</time>
      </trkpt>
      <trkpt lat="45.20784" lon="6.16446">
        <ele>2430.38</ele>
        <time>2014-05-09T09:45:08Z</time>
      </trkpt>
      <trkpt lat="45.20801" lon="6.16438">
        <ele>2418.03</ele>
        <time>2014-05-09T09:45:52Z</time>
      </trkpt>
      <trkpt lat="45.20816" lon="6.16422">
        <ele>2419.71</ele>
        <time>2014-05-09T09:46:28Z</time>
      </trkpt>
      <trkpt lat="45.20832" lon="6.16402">
        <ele>2420.24</ele>
        <time>2014-05-09T09:47:48Z</time>
      </trkpt>
      <trkpt lat="45.20847" lon="6.16382">
        <ele>2418.8</ele>
        <time>2014-05-09T09:48:21Z</time>
      </trkpt>
      <trkpt lat="45.2086" lon="6.1636">
        <ele>2418.89</ele>
        <time>2014-05-09T09:48:38Z</time>
      </trkpt>
      <trkpt lat="45.20878" lon="6.16351">
        <ele>2417.97</ele>
        <time>2014-05-09T09:48:42Z</time>
      </trkpt>
      <trkpt lat="45.20873" lon="6.16321">
        <ele>2422.37</ele>
        <time>2014-05-09T09:49:18Z</time>
      </trkpt>
      <trkpt lat="45.20872" lon="6.16295">
        <ele>2421.65</ele>
        <time>2014-05-09T09:49:27Z</time>
      </trkpt>
      <trkpt lat="45.20885" lon="6.16275">
        <ele>2419.1</ele>
        <time>2014-05-09T09:49:34Z</time>
      </trkpt>
      <trkpt lat="45.20903" lon="6.16277">
        <ele>2416.18</ele>
        <time>2014-05-09T09:49:39Z</time>
      </trkpt>
      <trkpt lat="45.20928" lon="6.1628">
        <ele>2411.87</ele>
        <time>2014-05-09T09:49:43Z</time>
      </trkpt>
      <trkpt lat="45.20952" lon="6.16279">
        <ele>2405.8</ele>
        <time>2014-05-09T09:49:46Z</time>
      </trkpt>
      <trkpt lat="45.20973" lon="6.16278">
        <ele>2400.39</ele>
        <time>2014-05-09T09:49:50Z</time>
      </trkpt>
      <trkpt lat="45.20993" lon="6.16274">
        <ele>2395.72</ele>
        <time>2014-05-09T09:49:55Z</time>
      </trkpt>
      <trkpt lat="45.21011" lon="6.1627">
        <ele>2391.55</ele>
        <time>2014-05-09T09:50:04Z</time>
      </trkpt>
      <trkpt lat="45.21029" lon="6.16266">
        <ele>2395.45</ele>
        <time>2014-05-09T09:50:22Z</time>
      </trkpt>
      <trkpt lat="45.2105" lon="6.16263">
        <ele>2393.27</ele>
        <time>2014-05-09T09:50:27Z</time>
      </trkpt>
      <trkpt lat="45.21069" lon="6.16257">
        <ele>2388.77</ele>
        <time>2014-05-09T09:50:31Z</time>
      </trkpt>
      <trkpt lat="45.21089" lon="6.16252">
        <ele>2381.06</ele>
        <time>2014-05-09T09:50:47Z</time>
      </trkpt>
      <trkpt lat="45.21108" lon="6.1625">
        <ele>2379.53</ele>
        <time>2014-05-09T09:51:04Z</time>
      </trkpt>
      <trkpt lat="45.21126" lon="6.16248">
        <ele>2377.3</ele>
        <time>2014-05-09T09:51:10Z</time>
      </trkpt>
      <trkpt lat="45.21146" lon="6.16249">
        <ele>2379.2</ele>
        <time>2014-05-09T09:52:18Z</time>
      </trkpt>
      <trkpt lat="45.21167" lon="6.16242">
        <ele>2375.06</ele>
        <time>2014-05-09T09:53:43Z</time>
      </trkpt>
      <trkpt lat="45.21186" lon="6.16238">
        <ele>2377.01</ele>
        <time>2014-05-09T09:54:10Z</time>
      </trkpt>
      <trkpt lat="45.21205" lon="6.16238">
        <ele>2377.96</ele>
        <time>2014-05-09T09:54:39Z</time>
      </trkpt>
      <trkpt lat="45.21223" lon="6.16236">
        <ele>2372.14</ele>
        <time>2014-05-09T09:55:05Z</time>
      </trkpt>
      <trkpt lat="45.21241" lon="6.16228">
        <ele>2374.63</ele>
        <time>2014-05-09T09:56:02Z</time>
      </trkpt>
      <trkpt lat="45.21262" lon="6.16226">
        <ele>2374.07</ele>
        <time>2014-05-09T09:56:08Z</time>
      </trkpt>
      <trkpt lat="45.21282" lon="6.16228">
        <ele>2371.02</ele>
        <time>2014-05-09T09:56:11Z</time>
      </trkpt>
      <trkpt lat="45.21304" lon="6.1623">
        <ele>2366.64</ele>
        <time>2014-05-09T09:56:15Z</time>
      </trkpt>
      <trkpt lat="45.21325" lon="6.16231">
        <ele>2362.4</ele>
        <time>2014-05-09T09:56:20Z</time>
      </trkpt>
      <trkpt lat="45.21346" lon="6.16231">
        <ele>2357.84</ele>
        <time>2014-05-09T09:56:24Z</time>
      </trkpt>
      <trkpt lat="45.21365" lon="6.16233">
        <ele>2352.51</ele>
        <time>2014-05-09T09:56:28Z</time>
      </trkpt>
      <trkpt lat="45.21383" lon="6.16234">
        <ele>2342.29</ele>
        <time>2014-05-09T09:57:07Z</time>
      </trkpt>
      <trkpt lat="45.21402" lon="6.16236">
        <ele>2348.42</ele>
        <time>2014-05-09T09:57:27Z</time>
      </trkpt>
      <trkpt lat="45.21421" lon="6.16243">
        <ele>2345.86</ele>
        <time>2014-05-09T09:57:33Z</time>
      </trkpt>
      <trkpt lat="45.21439" lon="6.16247">
        <ele>2339.32</ele>
        <time>2014-05-09T10:00:43Z</time>
      </trkpt>
      <trkpt lat="45.21455" lon="6.16234">
        <ele>2336.16</ele>
        <time>2014-05-09T10:01:24Z</time>
      </trkpt>
      <trkpt lat="45.21467" lon="6.16215">
        <ele>2336.74</ele>
        <time>2014-05-09T10:01:43Z</time>
      </trkpt>
      <trkpt lat="45.21472" lon="6.1619">
        <ele>2332.65</ele>
        <time>2014-05-09T10:02:08Z</time>
      </trkpt>
      <trkpt lat="45.21463" lon="6.16167">
        <ele>2340.71</ele>
        <time>2014-05-09T10:02:38Z</time>
      </trkpt>
      <trkpt lat="45.21458" lon="6.16142">
        <ele>2338.4</ele>
        <time>2014-05-09T10:02:46Z</time>
      </trkpt>
      <trkpt lat="45.21454" lon="6.16116">
        <ele>2335.92</ele>
        <time>2014-05-09T10:02:51Z</time>
      </trkpt>
      <trkpt lat="45.21449" lon="6.16091">
        <ele>2326.03</ele>
        <time>2014-05-09T10:02:57Z</time>
      </trkpt>
      <trkpt lat="45.21445" lon="6.16062">
        <ele>2320.19</ele>
        <time>2014-05-09T10:03:02Z</time>
      </trkpt>
      <trkpt lat="45.21443" lon="6.16037">
        <ele>2316.92</ele>
        <time>2014-05-09T10:03:08Z</time>
      </trkpt>
      <trkpt lat="45.21445" lon="6.16009">
        <ele>2315.52</ele>
        <time>2014-05-09T10:04:06Z</time>
      </trkpt>
      <trkpt lat="45.21454" lon="6.15986">
        <ele>2313.04</ele>
        <time>2014-05-09T10:04:10Z</time>
      </trkpt>
      <trkpt lat="45.21473" lon="6.15964">
        <ele>2308.05</ele>
        <time>2014-05-09T10:04:15Z</time>
      </trkpt>
      <trkpt lat="45.21488" lon="6.15936">
        <ele>2303.6</ele>
        <time>2014-05-09T10:04:18Z</time>
      </trkpt>
      <trkpt lat="45.21498" lon="6.15912">
        <ele>2298.73</ele>
        <time>2014-05-09T10:04:20Z</time>
      </trkpt>
      <trkpt lat="45.21512" lon="6.15887">
        <ele>2293.61</ele>
        <time>2014-05-09T10:04:22Z</time>
      </trkpt>
      <trkpt lat="45.21533" lon="6.15868">
        <ele>2286.95</ele>
        <time>2014-05-09T10:04:25Z</time>
      </trkpt>
      <trkpt lat="45.21555" lon="6.15859">
        <ele>2282.71</ele>
        <time>2014-05-09T10:04:29Z</time>
      </trkpt>
      <trkpt lat="45.21574" lon="6.15855">
        <ele>2281.07</ele>
        <time>2014-05-09T10:04:32Z</time>
      </trkpt>
      <trkpt lat="45.21592" lon="6.15853">
        <ele>2279.47</ele>
        <time>2014-05-09T10:04:35Z</time>
      </trkpt>
      <trkpt lat="45.21614" lon="6.15857">
        <ele>2277.85</ele>
        <time>2014-05-09T10:04:39Z</time>
      </trkpt>
      <trkpt lat="45.21632" lon="6.15861">
        <ele>2275.39</ele>
        <time>2014-05-09T10:04:43Z</time>
      </trkpt>
      <trkpt lat="45.21651" lon="6.15864">
        <ele>2273.36</ele>
        <time>2014-05-09T10:04:46Z</time>
      </trkpt>
      <trkpt lat="45.21674" lon="6.15867">
        <ele>2268.3</ele>
        <time>2014-05-09T10:04:49Z</time>
      </trkpt>
      <trkpt lat="45.21693" lon="6.15869">
        <ele>2264.49</ele>
        <time>2014-05-09T10:04:51Z</time>
      </trkpt>
      <trkpt lat="45.21711" lon="6.15872">
        <ele>2261.04</ele>
        <time>2014-05-09T10:04:53Z</time>
      </trkpt>
      <trkpt lat="45.21736" lon="6.15878">
        <ele>2256.13</ele>
        <time>2014-05-09T10:04:56Z</time>
      </trkpt>
      <trkpt lat="45.21754" lon="6.15885">
        <ele>2253.34</ele>
        <time>2014-05-09T10:04:59Z</time>
      </trkpt>
      <trkpt lat="45.21769" lon="6.159">
        <ele>2254.93</ele>
        <time>2014-05-09T10:05:20Z</time>
      </trkpt>
      <trkpt lat="45.21786" lon="6.1591">
        <ele>2255.58</ele>
        <time>2014-05-09T10:05:34Z</time>
      </trkpt>
      <trkpt lat="45.21803" lon="6.15919">
        <ele>2253.14</ele>
        <time>2014-05-09T10:05:42Z</time>
      </trkpt>
      <trkpt lat="45.21821" lon="6.15913">
        <ele>2256.66</ele>
        <time>2014-05-09T10:05:50Z</time>
      </trkpt>
      <trkpt lat="45.21839" lon="6.159">
        <ele>2253.31</ele>
        <time>2014-05-09T10:05:56Z</time>
      </trkpt>
      <trkpt lat="45.21858" lon="6.15898">
        <ele>2249.12</ele>
        <time>2014-05-09T10:06:03Z</time>
      </trkpt>
      <trkpt lat="45.21878" lon="6.15904">
        <ele>2251.48</ele>
        <time>2014-05-09T10:06:08Z</time>
      </trkpt>
      <trkpt lat="45.21896" lon="6.15907">
        <ele>2247.79</ele>
        <time>2014-05-09T10:06:16Z</time>
      </trkpt>
      <trkpt lat="45.21915" lon="6.15914">
        <ele>2239.14</ele>
        <time>2014-05-09T10:06:24Z</time>
      </trkpt>
      <trkpt lat="45.21932" lon="6.15923">
        <ele>2240.81</ele>
        <time>2014-05-09T10:06:34Z</time>
      </trkpt>
      <trkpt lat="45.21952" lon="6.15927">
        <ele>2236.03</ele>
        <time>2014-05-09T10:06:42Z</time>
      </trkpt>
      <trkpt lat="45.2197" lon="6.15919">
        <ele>2236.39</ele>
        <time>2014-05-09T10:06:47Z</time>
      </trkpt>
      <trkpt lat="45.21989" lon="6.15912">
        <ele>2232.57</ele>
        <time>2014-05-09T10:06:52Z</time>
      </trkpt>
      <trkpt lat="45.22006" lon="6.1592">
        <ele>2229.16</ele>
        <time>2014-05-09T10:06:57Z</time>
      </trkpt>
      <trkpt lat="45.22024" lon="6.1594">
        <ele>2227.71</ele>
        <time>2014-05-09T10:07:01Z</time>
      </trkpt>
      <trkpt lat="45.22041" lon="6.1596">
        <ele>2224.91</ele>
        <time>2014-05-09T10:07:04Z</time>
      </trkpt>
      <trkpt lat="45.22056" lon="6.15986">
        <ele>2220.11</ele>
        <time>2014-05-09T10:07:07Z</time>
      </trkpt>
      <trkpt lat="45.22067" lon="6.16007">
        <ele>2215.89</ele>
        <time>2014-05-09T10:07:09Z</time>
      </trkpt>
      <trkpt lat="45.22077" lon="6.16031">
        <ele>2210.05</ele>
        <time>2014-05-09T10:07:12Z</time>
      </trkpt>
      <trkpt lat="45.22096" lon="6.1605">
        <ele>2204.22</ele>
        <time>2014-05-09T10:07:16Z</time>
      </trkpt>
      <trkpt lat="45.22116" lon="6.16062">
        <ele>2200.12</ele>
        <time>2014-05-09T10:07:19Z</time>
      </trkpt>
      <trkpt lat="45.22136" lon="6.16075">
        <ele>2193.79</ele>
        <time>2014-05-09T10:07:22Z</time>
      </trkpt>
      <trkpt lat="45.22147" lon="6.16098">
        <ele>2186.61</ele>
        <time>2014-05-09T10:07:25Z</time>
      </trkpt>
      <trkpt lat="45.22158" lon="6.16119">
        <ele>2181.54</ele>
        <time>2014-05-09T10:07:28Z</time>
      </trkpt>
      <trkpt lat="45.2218" lon="6.16125">
        <ele>2178.91</ele>
        <time>2014-05-09T10:07:31Z</time>
      </trkpt>
      <trkpt lat="45.22197" lon="6.16151">
        <ele>2171.44</ele>
        <time>2014-05-09T10:07:34Z</time>
      </trkpt>
      <trkpt lat="45.22212" lon="6.16184">
        <ele>2163.83</ele>
        <time>2014-05-09T10:07:37Z</time>
      </trkpt>
      <trkpt lat="45.22218" lon="6.16211">
        <ele>2159.04</ele>
        <time>2014-05-09T10:07:40Z</time>
      </trkpt>
      <trkpt lat="45.22221" lon="6.16239">
        <ele>2152.26</ele>
        <time>2014-05-09T10:07:48Z</time>
      </trkpt>
      <trkpt lat="45.22229" lon="6.16262">
        <ele>2147.67</ele>
        <time>2014-05-09T10:07:54Z</time>
      </trkpt>
      <trkpt lat="45.22245" lon="6.16276">
        <ele>2144.98</ele>
        <time>2014-05-09T10:07:58Z</time>
      </trkpt>
      <trkpt lat="45.22259" lon="6.1629">
        <ele>2141.93</ele>
        <time>2014-05-09T10:08:02Z</time>
      </trkpt>
      <trkpt lat="45.22243" lon="6.16307">
        <ele>2135.53</ele>
        <time>2014-05-09T10:08:07Z</time>
      </trkpt>
      <trkpt lat="45.22228" lon="6.1633">
        <ele>2130.42</ele>
        <time>2014-05-09T10:08:10Z</time>
      </trkpt>
      <trkpt lat="45.22231" lon="6.16364">
        <ele>2125.78</ele>
        <time>2014-05-09T10:08:13Z</time>
      </trkpt>
      <trkpt lat="45.22242" lon="6.16388">
        <ele>2122.64</ele>
        <time>2014-05-09T10:08:15Z</time>
      </trkpt>
      <trkpt lat="45.22258" lon="6.164">
        <ele>2116.74</ele>
        <time>2014-05-09T10:08:17Z</time>
      </trkpt>
      <trkpt lat="45.22278" lon="6.16408">
        <ele>2111.24</ele>
        <time>2014-05-09T10:08:21Z</time>
      </trkpt>
      <trkpt lat="45.22293" lon="6.16422">
        <ele>2102.44</ele>
        <time>2014-05-09T10:08:29Z</time>
      </trkpt>
      <trkpt lat="45.22313" lon="6.16427">
        <ele>2102.74</ele>
        <time>2014-05-09T10:09:45Z</time>
      </trkpt>
      <trkpt lat="45.2233" lon="6.16436">
        <ele>2108.28</ele>
        <time>2014-05-09T10:10:45Z</time>
      </trkpt>
      <trkpt lat="45.22349" lon="6.16444">
        <ele>2109.7</ele>
        <time>2014-05-09T10:11:04Z</time>
      </trkpt>
      <trkpt lat="45.22369" lon="6.16451">
        <ele>2108.79</ele>
        <time>2014-05-09T10:11:07Z</time>
      </trkpt>
      <trkpt lat="45.22389" lon="6.16454">
        <ele>2105.65</ele>
        <time>2014-05-09T10:11:10Z</time>
      </trkpt>
      <trkpt lat="45.22409" lon="6.16459">
        <ele>2096.08</ele>
        <time>2014-05-09T10:11:15Z</time>
      </trkpt>
      <trkpt lat="45.22415" lon="6.16488">
        <ele>2082.25</ele>
        <time>2014-05-09T10:11:21Z</time>
      </trkpt>
      <trkpt lat="45.22432" lon="6.16503">
        <ele>2072.98</ele>
        <time>2014-05-09T10:11:26Z</time>
      </trkpt>
      <trkpt lat="45.22453" lon="6.16508">
        <ele>2066.29</ele>
        <time>2014-05-09T10:11:30Z</time>
      </trkpt>
      <trkpt lat="45.22473" lon="6.16514">
        <ele>2059.53</ele>
        <time>2014-05-09T10:11:34Z</time>
      </trkpt>
      <trkpt lat="45.22483" lon="6.16538">
        <ele>2048.21</ele>
        <time>2014-05-09T10:11:40Z</time>
      </trkpt>
      <trkpt lat="45.22506" lon="6.16549">
        <ele>2044.08</ele>
        <time>2014-05-09T10:11:46Z</time>
      </trkpt>
      <trkpt lat="45.2252" lon="6.16569">
        <ele>2040.23</ele>
        <time>2014-05-09T10:11:49Z</time>
      </trkpt>
      <trkpt lat="45.22538" lon="6.16577">
        <ele>2032.6</ele>
        <time>2014-05-09T10:11:55Z</time>
      </trkpt>
      <trkpt lat="45.22559" lon="6.16593">
        <ele>2029.48</ele>
        <time>2014-05-09T10:11:59Z</time>
      </trkpt>
      <trkpt lat="45.22585" lon="6.16593">
        <ele>2022.37</ele>
        <time>2014-05-09T10:12:02Z</time>
      </trkpt>
      <trkpt lat="45.22601" lon="6.16611">
        <ele>2011.56</ele>
        <time>2014-05-09T10:12:06Z</time>
      </trkpt>
      <trkpt lat="45.22616" lon="6.16626">
        <ele>2005.2</ele>
        <time>2014-05-09T10:12:10Z</time>
      </trkpt>
      <trkpt lat="45.22634" lon="6.16643">
        <ele>2000.78</ele>
        <time>2014-05-09T10:12:14Z</time>
      </trkpt>
      <trkpt lat="45.22649" lon="6.16664">
        <ele>1985.32</ele>
        <time>2014-05-09T10:12:49Z</time>
      </trkpt>
      <trkpt lat="45.22665" lon="6.16679">
        <ele>1982.13</ele>
        <time>2014-05-09T10:12:52Z</time>
      </trkpt>
      <trkpt lat="45.2268" lon="6.167">
        <ele>1978.9</ele>
        <time>2014-05-09T10:12:55Z</time>
      </trkpt>
      <trkpt lat="45.22691" lon="6.16721">
        <ele>1976</ele>
        <time>2014-05-09T10:12:58Z</time>
      </trkpt>
      <trkpt lat="45.22702" lon="6.16699">
        <ele>1959.35</ele>
        <time>2014-05-09T10:13:08Z</time>
      </trkpt>
      <trkpt lat="45.2272" lon="6.16676">
        <ele>1949.77</ele>
        <time>2014-05-09T10:13:16Z</time>
      </trkpt>
      <trkpt lat="45.22734" lon="6.16691">
        <ele>1946.2</ele>
        <time>2014-05-09T10:13:18Z</time>
      </trkpt>
      <trkpt lat="45.22753" lon="6.16688">
        <ele>1939.48</ele>
        <time>2014-05-09T10:13:22Z</time>
      </trkpt>
      <trkpt lat="45.2277" lon="6.16702">
        <ele>1925.63</ele>
        <time>2014-05-09T10:13:41Z</time>
      </trkpt>
      <trkpt lat="45.22786" lon="6.16717">
        <ele>1919.43</ele>
        <time>2014-05-09T10:13:45Z</time>
      </trkpt>
      <trkpt lat="45.22806" lon="6.16718">
        <ele>1907.72</ele>
        <time>2014-05-09T10:13:54Z</time>
      </trkpt>
      <trkpt lat="45.22821" lon="6.16697">
        <ele>1897.13</ele>
        <time>2014-05-09T10:13:59Z</time>
      </trkpt>
      <trkpt lat="45.22838" lon="6.16708">
        <ele>1886.92</ele>
        <time>2014-05-09T10:14:03Z</time>
      </trkpt>
      <trkpt lat="45.22855" lon="6.16722">
        <ele>1874.31</ele>
        <time>2014-05-09T10:14:30Z</time>
      </trkpt>
      <trkpt lat="45.22873" lon="6.16727">
        <ele>1870.17</ele>
        <time>2014-05-09T10:14:34Z</time>
      </trkpt>
      <trkpt lat="45.2288" lon="6.167">
        <ele>1864.01</ele>
        <time>2014-05-09T10:14:38Z</time>
      </trkpt>
      <trkpt lat="45.22898" lon="6.16689">
        <ele>1852.51</ele>
        <time>2014-05-09T10:14:44Z</time>
      </trkpt>
      <trkpt lat="45.229" lon="6.16664">
        <ele>1849.14</ele>
        <time>2014-05-09T10:14:48Z</time>
      </trkpt>
      <trkpt lat="45.22918" lon="6.1667">
        <ele>1842.72</ele>
        <time>2014-05-09T10:14:52Z</time>
      </trkpt>
      <trkpt lat="45.22927" lon="6.16646">
        <ele>1829.88</ele>
        <time>2014-05-09T10:14:58Z</time>
      </trkpt>
      <trkpt lat="45.22944" lon="6.16632">
        <ele>1820.58</ele>
        <time>2014-05-09T10:15:03Z</time>
      </trkpt>
      <trkpt lat="45.22958" lon="6.16617">
        <ele>1811.23</ele>
        <time>2014-05-09T10:15:10Z</time>
      </trkpt>
      <trkpt lat="45.2297" lon="6.16596">
        <ele>1805.38</ele>
        <time>2014-05-09T10:15:14Z</time>
      </trkpt>
      <trkpt lat="45.22975" lon="6.1657">
        <ele>1789.34</ele>
        <time>2014-05-09T10:15:54Z</time>
      </trkpt>
      <trkpt lat="45.2299" lon="6.16551">
        <ele>1787.83</ele>
        <time>2014-05-09T10:16:06Z</time>
      </trkpt>
      <trkpt lat="45.23008" lon="6.16542">
        <ele>1782.16</ele>
        <time>2014-05-09T10:16:14Z</time>
      </trkpt>
      <trkpt lat="45.23026" lon="6.1653">
        <ele>1780.16</ele>
        <time>2014-05-09T10:16:22Z</time>
      </trkpt>
      <trkpt lat="45.23044" lon="6.16538">
        <ele>1781.22</ele>
        <time>2014-05-09T10:20:57Z</time>
      </trkpt>
      <trkpt lat="45.2306" lon="6.16551">
        <ele>1775.62</ele>
        <time>2014-05-09T10:21:25Z</time>
      </trkpt>
      <trkpt lat="45.23077" lon="6.1656">
        <ele>1776.71</ele>
        <time>2014-05-09T10:21:44Z</time>
      </trkpt>
      <trkpt lat="45.23096" lon="6.16556">
        <ele>1774.72</ele>
        <time>2014-05-09T10:22:14Z</time>
      </trkpt>
      <trkpt lat="45.23114" lon="6.1656">
        <ele>1779.46</ele>
        <time>2014-05-09T10:22:57Z</time>
      </trkpt>
      <trkpt lat="45.23132" lon="6.16569">
        <ele>1781.79</ele>
        <time>2014-05-09T10:23:32Z</time>
      </trkpt>
      <trkpt lat="45.2315" lon="6.16565">
        <ele>1776.31</ele>
        <time>2014-05-09T10:24:06Z</time>
      </trkpt>
      <trkpt lat="45.23168" lon="6.16557">
        <ele>1773.92</ele>
        <time>2014-05-09T10:24:46Z</time>
      </trkpt>
      <trkpt lat="45.23186" lon="6.16551">
        <ele>1765.26</ele>
        <time>2014-05-09T10:25:06Z</time>
      </trkpt>
      <trkpt lat="45.23203" lon="6.16543">
        <ele>1776.82</ele>
        <time>2014-05-09T10:25:25Z</time>
      </trkpt>
      <trkpt lat="45.23222" lon="6.16545">
        <ele>1783.98</ele>
        <time>2014-05-09T10:26:07Z</time>
      </trkpt>
      <trkpt lat="45.23239" lon="6.16537">
        <ele>1788.21</ele>
        <time>2014-05-09T10:26:52Z</time>
      </trkpt>
      <trkpt lat="45.23252" lon="6.16519">
        <ele>1794.42</ele>
        <time>2014-05-09T10:27:24Z</time>
      </trkpt>
      <trkpt lat="45.23257" lon="6.16545">
        <ele>1806.51</ele>
        <time>2014-05-09T10:29:46Z</time>
      </trkpt>
      <trkpt lat="45.23268" lon="6.16567">
        <ele>1816.38</ele>
        <time>2014-05-09T10:30:03Z</time>
      </trkpt>
      <trkpt lat="45.23276" lon="6.1659">
        <ele>1806.26</ele>
        <time>2014-05-09T10:30:36Z</time>
      </trkpt>
      <trkpt lat="45.23282" lon="6.16615">
        <ele>1805.84</ele>
        <time>2014-05-09T10:30:57Z</time>
      </trkpt>
      <trkpt lat="45.23292" lon="6.16636">
        <ele>1816.64</ele>
        <time>2014-05-09T10:31:13Z</time>
      </trkpt>
      <trkpt lat="45.23302" lon="6.1666">
        <ele>1817.27</ele>
        <time>2014-05-09T10:31:30Z</time>
      </trkpt>
      <trkpt lat="45.23308" lon="6.16685">
        <ele>1816.75</ele>
        <time>2014-05-09T10:31:55Z</time>
      </trkpt>
      <trkpt lat="45.23313" lon="6.1671">
        <ele>1815.98</ele>
        <time>2014-05-09T10:32:11Z</time>
      </trkpt>
      <trkpt lat="45.23324" lon="6.16734">
        <ele>1828.47</ele>
        <time>2014-05-09T10:32:30Z</time>
      </trkpt>
      <trkpt lat="45.23327" lon="6.1676">
        <ele>1829.99</ele>
        <time>2014-05-09T10:32:53Z</time>
      </trkpt>
      <trkpt lat="45.23337" lon="6.16781">
        <ele>1828.01</ele>
        <time>2014-05-09T10:33:12Z</time>
      </trkpt>
      <trkpt lat="45.23347" lon="6.16804">
        <ele>1831.07</ele>
        <time>2014-05-09T10:33:30Z</time>
      </trkpt>
      <trkpt lat="45.23355" lon="6.16827">
        <ele>1830.83</ele>
        <time>2014-05-09T10:33:51Z</time>
      </trkpt>
    </trkseg>
  </trk>
</gpx>